sensor_id;sensor_type;location;lat;lon;timestamp;P1;durP1;ratioP1;P2;durP2;ratioP2
11743;SDS011;5929;51.906;7.674;2022-12-10T00:01:21;69.35;;;36.45;;
11743;SDS011;5929;51.906;7.674;2022-12-10T00:03:48;66.40;;;33.15;;
11743;SDS011;5929;51.906;7.674;2022-12-10T00:06:17;63.28;;;32.83;;
11743;SDS011;5929;51.906;7.674;2022-12-10T00:08:46;60.97;;;32.45;;
11743;SDS011;5929;51.906;7.674;2022-12-10T00:11:14;61.50;;;32.13;;
11743;SDS011;5929;51.906;7.674;2022-12-10T00:13:42;59.30;;;32.00;;
11743;SDS011;5929;51.906;7.674;2022-12-10T00:16:12;63.17;;;33.85;;
11743;SDS011;5929;51.906;7.674;2022-12-10T00:18:40;59.80;;;31.02;;
11743;SDS011;5929;51.906;7.674;2022-12-10T00:21:09;55.35;;;29.23;;
11743;SDS011;5929;51.906;7.674;2022-12-10T00:23:38;53.50;;;28.45;;
11743;SDS011;5929;51.906;7.674;2022-12-10T00:26:07;54.03;;;29.42;;
11743;SDS011;5929;51.906;7.674;2022-12-10T00:28:35;48.95;;;27.58;;
11743;SDS011;5929;51.906;7.674;2022-12-10T00:31:05;47.85;;;26.60;;
11743;SDS011;5929;51.906;7.674;2022-12-10T00:33:33;51.85;;;28.23;;
11743;SDS011;5929;51.906;7.674;2022-12-10T00:36:03;48.75;;;27.33;;
11743;SDS011;5929;51.906;7.674;2022-12-10T00:38:31;49.40;;;27.08;;
11743;SDS011;5929;51.906;7.674;2022-12-10T00:40:58;49.22;;;27.23;;
11743;SDS011;5929;51.906;7.674;2022-12-10T00:43:27;51.13;;;27.10;;
11743;SDS011;5929;51.906;7.674;2022-12-10T00:45:53;50.28;;;27.85;;
11743;SDS011;5929;51.906;7.674;2022-12-10T00:48:20;47.10;;;28.50;;
11743;SDS011;5929;51.906;7.674;2022-12-10T00:50:54;46.35;;;26.17;;
11743;SDS011;5929;51.906;7.674;2022-12-10T00:53:22;47.30;;;26.50;;
11743;SDS011;5929;51.906;7.674;2022-12-10T00:55:49;52.35;;;27.63;;
11743;SDS011;5929;51.906;7.674;2022-12-10T00:58:16;46.03;;;26.02;;
11743;SDS011;5929;51.906;7.674;2022-12-10T01:00:45;48.05;;;27.70;;
11743;SDS011;5929;51.906;7.674;2022-12-10T01:03:12;45.13;;;25.67;;
11743;SDS011;5929;51.906;7.674;2022-12-10T01:05:39;49.53;;;26.65;;
11743;SDS011;5929;51.906;7.674;2022-12-10T01:08:06;45.70;;;25.45;;
11743;SDS011;5929;51.906;7.674;2022-12-10T01:10:33;39.67;;;24.13;;
11743;SDS011;5929;51.906;7.674;2022-12-10T01:13:03;39.75;;;23.42;;
11743;SDS011;5929;51.906;7.674;2022-12-10T01:15:30;40.75;;;24.33;;
11743;SDS011;5929;51.906;7.674;2022-12-10T01:17:58;44.88;;;25.48;;
11743;SDS011;5929;51.906;7.674;2022-12-10T01:20:25;46.20;;;26.02;;
11743;SDS011;5929;51.906;7.674;2022-12-10T01:22:52;47.42;;;26.65;;
11743;SDS011;5929;51.906;7.674;2022-12-10T01:25:19;42.33;;;26.63;;
11743;SDS011;5929;51.906;7.674;2022-12-10T01:27:46;42.35;;;24.90;;
11743;SDS011;5929;51.906;7.674;2022-12-10T01:30:12;44.30;;;24.45;;
11743;SDS011;5929;51.906;7.674;2022-12-10T01:32:39;44.60;;;25.65;;
11743;SDS011;5929;51.906;7.674;2022-12-10T01:35:08;42.50;;;25.15;;
11743;SDS011;5929;51.906;7.674;2022-12-10T01:37:34;45.42;;;26.05;;
11743;SDS011;5929;51.906;7.674;2022-12-10T01:40:01;41.35;;;24.23;;
11743;SDS011;5929;51.906;7.674;2022-12-10T01:42:29;29.45;;;18.52;;
11743;SDS011;5929;51.906;7.674;2022-12-10T01:45:01;31.40;;;18.92;;
11743;SDS011;5929;51.906;7.674;2022-12-10T01:47:33;26.02;;;16.25;;
11743;SDS011;5929;51.906;7.674;2022-12-10T01:50:00;27.95;;;17.80;;
11743;SDS011;5929;51.906;7.674;2022-12-10T01:52:29;31.65;;;19.13;;
11743;SDS011;5929;51.906;7.674;2022-12-10T01:54:56;31.00;;;19.42;;
11743;SDS011;5929;51.906;7.674;2022-12-10T01:57:24;35.53;;;21.85;;
11743;SDS011;5929;51.906;7.674;2022-12-10T01:59:53;32.85;;;21.17;;
11743;SDS011;5929;51.906;7.674;2022-12-10T02:02:26;39.08;;;23.50;;
11743;SDS011;5929;51.906;7.674;2022-12-10T02:05:06;35.85;;;21.55;;
11743;SDS011;5929;51.906;7.674;2022-12-10T02:07:45;36.92;;;21.83;;
11743;SDS011;5929;51.906;7.674;2022-12-10T02:10:26;31.73;;;20.85;;
11743;SDS011;5929;51.906;7.674;2022-12-10T02:13:04;31.05;;;18.13;;
11743;SDS011;5929;51.906;7.674;2022-12-10T02:15:38;32.38;;;20.25;;
11743;SDS011;5929;51.906;7.674;2022-12-10T02:18:08;35.50;;;21.10;;
11743;SDS011;5929;51.906;7.674;2022-12-10T02:20:39;36.08;;;22.48;;
11743;SDS011;5929;51.906;7.674;2022-12-10T02:23:10;36.15;;;22.65;;
11743;SDS011;5929;51.906;7.674;2022-12-10T02:25:40;33.15;;;20.92;;
11743;SDS011;5929;51.906;7.674;2022-12-10T02:28:13;34.33;;;21.33;;
11743;SDS011;5929;51.906;7.674;2022-12-10T02:30:49;35.25;;;22.83;;
11743;SDS011;5929;51.906;7.674;2022-12-10T02:33:18;40.15;;;24.60;;
11743;SDS011;5929;51.906;7.674;2022-12-10T02:35:46;38.80;;;23.83;;
11743;SDS011;5929;51.906;7.674;2022-12-10T02:38:16;38.38;;;24.30;;
11743;SDS011;5929;51.906;7.674;2022-12-10T02:40:48;40.33;;;23.58;;
11743;SDS011;5929;51.906;7.674;2022-12-10T02:43:18;40.78;;;24.55;;
11743;SDS011;5929;51.906;7.674;2022-12-10T02:45:49;38.70;;;20.90;;
11743;SDS011;5929;51.906;7.674;2022-12-10T02:48:17;34.88;;;20.85;;
11743;SDS011;5929;51.906;7.674;2022-12-10T02:50:45;31.20;;;20.70;;
11743;SDS011;5929;51.906;7.674;2022-12-10T02:53:12;34.85;;;20.98;;
11743;SDS011;5929;51.906;7.674;2022-12-10T02:55:51;36.10;;;21.65;;
11743;SDS011;5929;51.906;7.674;2022-12-10T02:58:26;40.90;;;25.08;;
11743;SDS011;5929;51.906;7.674;2022-12-10T03:01:05;40.25;;;25.27;;
11743;SDS011;5929;51.906;7.674;2022-12-10T03:03:39;38.97;;;24.92;;
11743;SDS011;5929;51.906;7.674;2022-12-10T03:06:16;38.92;;;24.90;;
11743;SDS011;5929;51.906;7.674;2022-12-10T03:08:47;39.15;;;23.70;;
11743;SDS011;5929;51.906;7.674;2022-12-10T03:11:16;39.92;;;24.50;;
11743;SDS011;5929;51.906;7.674;2022-12-10T03:13:47;38.72;;;24.77;;
11743;SDS011;5929;51.906;7.674;2022-12-10T03:16:20;41.45;;;25.08;;
11743;SDS011;5929;51.906;7.674;2022-12-10T03:18:49;41.05;;;25.88;;
11743;SDS011;5929;51.906;7.674;2022-12-10T03:21:21;43.67;;;26.10;;
11743;SDS011;5929;51.906;7.674;2022-12-10T03:23:51;39.00;;;25.25;;
11743;SDS011;5929;51.906;7.674;2022-12-10T03:26:20;41.05;;;24.92;;
11743;SDS011;5929;51.906;7.674;2022-12-10T03:28:49;33.47;;;21.90;;
11743;SDS011;5929;51.906;7.674;2022-12-10T03:31:18;34.35;;;22.50;;
11743;SDS011;5929;51.906;7.674;2022-12-10T03:33:47;37.67;;;23.05;;
11743;SDS011;5929;51.906;7.674;2022-12-10T03:36:15;28.80;;;19.85;;
11743;SDS011;5929;51.906;7.674;2022-12-10T03:38:44;28.05;;;19.17;;
11743;SDS011;5929;51.906;7.674;2022-12-10T03:41:11;32.22;;;20.05;;
11743;SDS011;5929;51.906;7.674;2022-12-10T03:43:49;31.80;;;20.52;;
11743;SDS011;5929;51.906;7.674;2022-12-10T03:46:17;36.10;;;21.75;;
11743;SDS011;5929;51.906;7.674;2022-12-10T03:48:45;37.92;;;23.95;;
11743;SDS011;5929;51.906;7.674;2022-12-10T03:51:12;35.03;;;22.65;;
11743;SDS011;5929;51.906;7.674;2022-12-10T03:53:40;34.50;;;23.13;;
11743;SDS011;5929;51.906;7.674;2022-12-10T03:56:07;34.38;;;22.67;;
11743;SDS011;5929;51.906;7.674;2022-12-10T03:58:34;36.45;;;21.08;;
11743;SDS011;5929;51.906;7.674;2022-12-10T04:01:00;34.90;;;22.75;;
11743;SDS011;5929;51.906;7.674;2022-12-10T04:03:27;38.88;;;24.67;;
11743;SDS011;5929;51.906;7.674;2022-12-10T04:06:00;38.53;;;24.02;;
11743;SDS011;5929;51.906;7.674;2022-12-10T04:08:27;37.13;;;23.15;;
11743;SDS011;5929;51.906;7.674;2022-12-10T04:10:54;35.72;;;22.92;;
11743;SDS011;5929;51.906;7.674;2022-12-10T04:13:21;35.25;;;23.42;;
11743;SDS011;5929;51.906;7.674;2022-12-10T04:16:05;39.80;;;24.95;;
11743;SDS011;5929;51.906;7.674;2022-12-10T04:18:51;38.45;;;23.77;;
11743;SDS011;5929;51.906;7.674;2022-12-10T04:21:19;34.42;;;22.05;;
11743;SDS011;5929;51.906;7.674;2022-12-10T04:24:03;38.55;;;24.92;;
11743;SDS011;5929;51.906;7.674;2022-12-10T04:26:48;35.85;;;23.80;;
11743;SDS011;5929;51.906;7.674;2022-12-10T04:29:20;36.00;;;23.55;;
11743;SDS011;5929;51.906;7.674;2022-12-10T04:31:48;30.77;;;20.02;;
11743;SDS011;5929;51.906;7.674;2022-12-10T04:34:17;32.63;;;20.42;;
11743;SDS011;5929;51.906;7.674;2022-12-10T04:36:46;38.97;;;23.60;;
11743;SDS011;5929;51.906;7.674;2022-12-10T04:39:13;38.22;;;23.42;;
11743;SDS011;5929;51.906;7.674;2022-12-10T04:41:40;35.20;;;23.73;;
11743;SDS011;5929;51.906;7.674;2022-12-10T04:44:08;34.97;;;21.73;;
11743;SDS011;5929;51.906;7.674;2022-12-10T04:46:38;33.67;;;22.10;;
11743;SDS011;5929;51.906;7.674;2022-12-10T04:49:05;33.40;;;22.52;;
11743;SDS011;5929;51.906;7.674;2022-12-10T04:51:33;35.20;;;22.23;;
11743;SDS011;5929;51.906;7.674;2022-12-10T04:54:01;30.90;;;20.33;;
11743;SDS011;5929;51.906;7.674;2022-12-10T04:56:29;34.38;;;22.23;;
11743;SDS011;5929;51.906;7.674;2022-12-10T04:58:56;34.28;;;22.05;;
11743;SDS011;5929;51.906;7.674;2022-12-10T05:01:23;36.53;;;22.00;;
11743;SDS011;5929;51.906;7.674;2022-12-10T05:03:50;33.25;;;22.48;;
11743;SDS011;5929;51.906;7.674;2022-12-10T05:06:18;32.67;;;21.77;;
11743;SDS011;5929;51.906;7.674;2022-12-10T05:08:45;33.63;;;21.70;;
11743;SDS011;5929;51.906;7.674;2022-12-10T05:11:15;35.75;;;22.30;;
11743;SDS011;5929;51.906;7.674;2022-12-10T05:13:43;33.00;;;21.50;;
11743;SDS011;5929;51.906;7.674;2022-12-10T05:16:11;34.13;;;21.90;;
11743;SDS011;5929;51.906;7.674;2022-12-10T05:18:38;33.90;;;21.63;;
11743;SDS011;5929;51.906;7.674;2022-12-10T05:21:06;35.10;;;22.17;;
11743;SDS011;5929;51.906;7.674;2022-12-10T05:23:35;31.75;;;21.35;;
11743;SDS011;5929;51.906;7.674;2022-12-10T05:26:02;34.47;;;22.08;;
11743;SDS011;5929;51.906;7.674;2022-12-10T05:28:33;35.90;;;21.65;;
11743;SDS011;5929;51.906;7.674;2022-12-10T05:31:04;33.35;;;21.48;;
11743;SDS011;5929;51.906;7.674;2022-12-10T05:33:37;36.92;;;22.85;;
11743;SDS011;5929;51.906;7.674;2022-12-10T05:36:04;33.33;;;21.67;;
11743;SDS011;5929;51.906;7.674;2022-12-10T05:38:31;31.23;;;20.48;;
11743;SDS011;5929;51.906;7.674;2022-12-10T05:41:00;33.45;;;22.05;;
11743;SDS011;5929;51.906;7.674;2022-12-10T05:43:30;33.30;;;21.73;;
11743;SDS011;5929;51.906;7.674;2022-12-10T05:46:02;35.95;;;21.58;;
11743;SDS011;5929;51.906;7.674;2022-12-10T05:48:33;35.38;;;21.50;;
11743;SDS011;5929;51.906;7.674;2022-12-10T05:51:02;37.85;;;21.88;;
11743;SDS011;5929;51.906;7.674;2022-12-10T05:53:30;36.67;;;21.63;;
11743;SDS011;5929;51.906;7.674;2022-12-10T05:55:59;33.33;;;21.25;;
11743;SDS011;5929;51.906;7.674;2022-12-10T05:58:26;32.83;;;22.05;;
11743;SDS011;5929;51.906;7.674;2022-12-10T06:00:53;35.53;;;21.00;;
11743;SDS011;5929;51.906;7.674;2022-12-10T06:03:22;33.40;;;22.08;;
11743;SDS011;5929;51.906;7.674;2022-12-10T06:05:49;35.10;;;23.23;;
11743;SDS011;5929;51.906;7.674;2022-12-10T06:08:15;33.25;;;22.50;;
11743;SDS011;5929;51.906;7.674;2022-12-10T06:10:42;35.88;;;22.88;;
11743;SDS011;5929;51.906;7.674;2022-12-10T06:13:09;36.70;;;23.10;;
11743;SDS011;5929;51.906;7.674;2022-12-10T06:15:38;35.95;;;23.80;;
11743;SDS011;5929;51.906;7.674;2022-12-10T06:18:05;35.83;;;23.92;;
11743;SDS011;5929;51.906;7.674;2022-12-10T06:20:33;38.05;;;23.70;;
11743;SDS011;5929;51.906;7.674;2022-12-10T06:23:03;37.22;;;24.27;;
11743;SDS011;5929;51.906;7.674;2022-12-10T06:25:30;39.13;;;23.85;;
11743;SDS011;5929;51.906;7.674;2022-12-10T06:27:59;38.85;;;24.90;;
11743;SDS011;5929;51.906;7.674;2022-12-10T06:30:26;37.03;;;23.30;;
11743;SDS011;5929;51.906;7.674;2022-12-10T06:32:53;40.22;;;24.10;;
11743;SDS011;5929;51.906;7.674;2022-12-10T06:35:19;40.30;;;24.55;;
11743;SDS011;5929;51.906;7.674;2022-12-10T06:37:48;41.67;;;24.52;;
11743;SDS011;5929;51.906;7.674;2022-12-10T06:40:15;37.70;;;24.77;;
11743;SDS011;5929;51.906;7.674;2022-12-10T06:42:42;36.45;;;24.15;;
11743;SDS011;5929;51.906;7.674;2022-12-10T06:45:09;39.35;;;24.00;;
11743;SDS011;5929;51.906;7.674;2022-12-10T06:47:36;40.30;;;24.75;;
11743;SDS011;5929;51.906;7.674;2022-12-10T06:50:04;38.55;;;23.85;;
11743;SDS011;5929;51.906;7.674;2022-12-10T06:52:31;38.00;;;24.77;;
11743;SDS011;5929;51.906;7.674;2022-12-10T06:54:59;39.17;;;24.80;;
11743;SDS011;5929;51.906;7.674;2022-12-10T06:57:26;42.63;;;25.42;;
11743;SDS011;5929;51.906;7.674;2022-12-10T06:59:53;35.92;;;23.42;;
11743;SDS011;5929;51.906;7.674;2022-12-10T07:02:19;42.05;;;24.98;;
11743;SDS011;5929;51.906;7.674;2022-12-10T07:04:46;39.63;;;24.55;;
11743;SDS011;5929;51.906;7.674;2022-12-10T07:07:15;34.53;;;21.92;;
11743;SDS011;5929;51.906;7.674;2022-12-10T07:09:42;35.30;;;22.23;;
11743;SDS011;5929;51.906;7.674;2022-12-10T07:12:10;36.50;;;21.77;;
11743;SDS011;5929;51.906;7.674;2022-12-10T07:14:37;35.10;;;22.65;;
11743;SDS011;5929;51.906;7.674;2022-12-10T07:17:04;36.85;;;24.20;;
11743;SDS011;5929;51.906;7.674;2022-12-10T07:19:31;35.97;;;23.40;;
11743;SDS011;5929;51.906;7.674;2022-12-10T07:21:58;45.10;;;26.33;;
11743;SDS011;5929;51.906;7.674;2022-12-10T07:24:25;37.55;;;23.65;;
11743;SDS011;5929;51.906;7.674;2022-12-10T07:26:54;35.83;;;23.92;;
11743;SDS011;5929;51.906;7.674;2022-12-10T07:29:24;36.60;;;23.30;;
11743;SDS011;5929;51.906;7.674;2022-12-10T07:31:52;38.38;;;24.58;;
11743;SDS011;5929;51.906;7.674;2022-12-10T07:34:20;41.10;;;24.73;;
11743;SDS011;5929;51.906;7.674;2022-12-10T07:36:47;41.72;;;24.73;;
11743;SDS011;5929;51.906;7.674;2022-12-10T07:39:14;39.90;;;24.77;;
11743;SDS011;5929;51.906;7.674;2022-12-10T07:41:43;39.28;;;23.92;;
11743;SDS011;5929;51.906;7.674;2022-12-10T07:44:11;37.35;;;23.83;;
11743;SDS011;5929;51.906;7.674;2022-12-10T07:46:42;39.75;;;24.00;;
11743;SDS011;5929;51.906;7.674;2022-12-10T07:49:09;39.80;;;25.35;;
11743;SDS011;5929;51.906;7.674;2022-12-10T07:51:36;42.03;;;25.73;;
11743;SDS011;5929;51.906;7.674;2022-12-10T07:54:02;39.75;;;24.10;;
11743;SDS011;5929;51.906;7.674;2022-12-10T07:56:29;40.92;;;25.83;;
11743;SDS011;5929;51.906;7.674;2022-12-10T07:58:56;42.75;;;26.90;;
11743;SDS011;5929;51.906;7.674;2022-12-10T08:01:23;44.45;;;26.92;;
11743;SDS011;5929;51.906;7.674;2022-12-10T08:03:53;44.47;;;26.98;;
11743;SDS011;5929;51.906;7.674;2022-12-10T08:06:22;44.35;;;25.58;;
11743;SDS011;5929;51.906;7.674;2022-12-10T08:08:49;43.95;;;27.63;;
11743;SDS011;5929;51.906;7.674;2022-12-10T08:11:17;44.35;;;27.00;;
11743;SDS011;5929;51.906;7.674;2022-12-10T08:13:45;44.75;;;28.35;;
11743;SDS011;5929;51.906;7.674;2022-12-10T08:16:13;41.65;;;25.20;;
11743;SDS011;5929;51.906;7.674;2022-12-10T08:18:42;41.40;;;25.00;;
11743;SDS011;5929;51.906;7.674;2022-12-10T08:21:11;45.08;;;26.95;;
11743;SDS011;5929;51.906;7.674;2022-12-10T08:23:40;42.28;;;26.33;;
11743;SDS011;5929;51.906;7.674;2022-12-10T08:26:08;41.70;;;26.13;;
11743;SDS011;5929;51.906;7.674;2022-12-10T08:28:37;47.33;;;28.02;;
11743;SDS011;5929;51.906;7.674;2022-12-10T08:31:04;44.55;;;26.30;;
11743;SDS011;5929;51.906;7.674;2022-12-10T08:33:33;45.05;;;27.20;;
11743;SDS011;5929;51.906;7.674;2022-12-10T08:36:01;46.35;;;27.77;;
11743;SDS011;5929;51.906;7.674;2022-12-10T08:38:30;45.33;;;27.48;;
11743;SDS011;5929;51.906;7.674;2022-12-10T08:40:57;47.45;;;27.02;;
11743;SDS011;5929;51.906;7.674;2022-12-10T08:43:24;50.22;;;28.83;;
11743;SDS011;5929;51.906;7.674;2022-12-10T08:45:54;46.80;;;27.45;;
11743;SDS011;5929;51.906;7.674;2022-12-10T08:48:26;43.55;;;26.77;;
11743;SDS011;5929;51.906;7.674;2022-12-10T08:50:53;43.53;;;26.38;;
11743;SDS011;5929;51.906;7.674;2022-12-10T08:53:20;50.20;;;29.52;;
11743;SDS011;5929;51.906;7.674;2022-12-10T08:55:50;45.35;;;28.63;;
11743;SDS011;5929;51.906;7.674;2022-12-10T08:58:17;42.38;;;27.95;;
11743;SDS011;5929;51.906;7.674;2022-12-10T09:00:44;45.00;;;27.27;;
11743;SDS011;5929;51.906;7.674;2022-12-10T09:03:12;47.92;;;29.35;;
11743;SDS011;5929;51.906;7.674;2022-12-10T09:05:39;46.42;;;29.33;;
11743;SDS011;5929;51.906;7.674;2022-12-10T09:08:06;49.83;;;29.33;;
11743;SDS011;5929;51.906;7.674;2022-12-10T09:10:33;50.45;;;30.35;;
11743;SDS011;5929;51.906;7.674;2022-12-10T09:13:02;58.90;;;31.85;;
11743;SDS011;5929;51.906;7.674;2022-12-10T09:15:29;55.78;;;33.03;;
11743;SDS011;5929;51.906;7.674;2022-12-10T09:17:56;56.80;;;34.10;;
11743;SDS011;5929;51.906;7.674;2022-12-10T09:20:23;50.30;;;30.58;;
11743;SDS011;5929;51.906;7.674;2022-12-10T09:22:50;53.58;;;32.65;;
11743;SDS011;5929;51.906;7.674;2022-12-10T09:25:17;48.78;;;31.40;;
11743;SDS011;5929;51.906;7.674;2022-12-10T09:27:46;45.75;;;29.48;;
11743;SDS011;5929;51.906;7.674;2022-12-10T09:30:15;44.92;;;28.90;;
11743;SDS011;5929;51.906;7.674;2022-12-10T09:32:42;46.67;;;29.30;;
11743;SDS011;5929;51.906;7.674;2022-12-10T09:35:09;47.65;;;30.27;;
11743;SDS011;5929;51.906;7.674;2022-12-10T09:37:36;46.63;;;30.15;;
11743;SDS011;5929;51.906;7.674;2022-12-10T09:40:03;47.08;;;30.45;;
11743;SDS011;5929;51.906;7.674;2022-12-10T09:42:34;48.30;;;30.15;;
11743;SDS011;5929;51.906;7.674;2022-12-10T09:45:12;46.83;;;30.35;;
11743;SDS011;5929;51.906;7.674;2022-12-10T09:47:45;46.33;;;30.25;;
11743;SDS011;5929;51.906;7.674;2022-12-10T09:50:23;48.70;;;30.60;;
11743;SDS011;5929;51.906;7.674;2022-12-10T09:52:56;48.03;;;31.50;;
11743;SDS011;5929;51.906;7.674;2022-12-10T09:55:29;45.17;;;29.02;;
11743;SDS011;5929;51.906;7.674;2022-12-10T09:58:03;43.53;;;28.45;;
11743;SDS011;5929;51.906;7.674;2022-12-10T10:00:34;46.20;;;30.27;;
11743;SDS011;5929;51.906;7.674;2022-12-10T10:03:03;44.90;;;28.45;;
11743;SDS011;5929;51.906;7.674;2022-12-10T10:05:32;40.20;;;27.52;;
11743;SDS011;5929;51.906;7.674;2022-12-10T10:08:02;45.65;;;28.55;;
11743;SDS011;5929;51.906;7.674;2022-12-10T10:10:31;39.63;;;25.90;;
11743;SDS011;5929;51.906;7.674;2022-12-10T10:13:00;39.08;;;25.77;;
11743;SDS011;5929;51.906;7.674;2022-12-10T10:15:39;37.67;;;25.98;;
11743;SDS011;5929;51.906;7.674;2022-12-10T10:18:09;37.33;;;25.67;;
11743;SDS011;5929;51.906;7.674;2022-12-10T10:20:40;38.88;;;25.65;;
11743;SDS011;5929;51.906;7.674;2022-12-10T10:23:08;40.33;;;25.27;;
11743;SDS011;5929;51.906;7.674;2022-12-10T10:25:38;38.63;;;24.15;;
11743;SDS011;5929;51.906;7.674;2022-12-10T10:28:09;39.97;;;24.63;;
11743;SDS011;5929;51.906;7.674;2022-12-10T10:30:40;36.53;;;23.52;;
11743;SDS011;5929;51.906;7.674;2022-12-10T10:33:09;34.95;;;22.88;;
11743;SDS011;5929;51.906;7.674;2022-12-10T10:35:41;42.60;;;25.73;;
11743;SDS011;5929;51.906;7.674;2022-12-10T10:38:13;40.00;;;25.17;;
11743;SDS011;5929;51.906;7.674;2022-12-10T10:40:46;41.63;;;24.25;;
11743;SDS011;5929;51.906;7.674;2022-12-10T10:43:18;39.53;;;25.25;;
11743;SDS011;5929;51.906;7.674;2022-12-10T10:45:51;38.47;;;24.60;;
11743;SDS011;5929;51.906;7.674;2022-12-10T10:48:21;37.85;;;24.33;;
11743;SDS011;5929;51.906;7.674;2022-12-10T10:50:50;35.88;;;23.30;;
11743;SDS011;5929;51.906;7.674;2022-12-10T10:53:22;41.00;;;25.52;;
11743;SDS011;5929;51.906;7.674;2022-12-10T10:58:50;43.42;;;26.70;;
11743;SDS011;5929;51.906;7.674;2022-12-10T11:01:22;39.55;;;25.38;;
11743;SDS011;5929;51.906;7.674;2022-12-10T11:03:53;38.15;;;26.17;;
11743;SDS011;5929;51.906;7.674;2022-12-10T11:06:22;41.78;;;25.77;;
11743;SDS011;5929;51.906;7.674;2022-12-10T11:08:49;39.80;;;25.35;;
11743;SDS011;5929;51.906;7.674;2022-12-10T11:11:20;40.38;;;25.98;;
11743;SDS011;5929;51.906;7.674;2022-12-10T11:13:51;42.00;;;26.65;;
11743;SDS011;5929;51.906;7.674;2022-12-10T11:16:18;42.33;;;25.90;;
11743;SDS011;5929;51.906;7.674;2022-12-10T11:18:58;43.85;;;26.67;;
11743;SDS011;5929;51.906;7.674;2022-12-10T11:21:27;40.10;;;26.30;;
11743;SDS011;5929;51.906;7.674;2022-12-10T11:23:56;40.40;;;26.38;;
11743;SDS011;5929;51.906;7.674;2022-12-10T11:26:26;39.00;;;25.55;;
11743;SDS011;5929;51.906;7.674;2022-12-10T11:29:05;40.83;;;25.60;;
11743;SDS011;5929;51.906;7.674;2022-12-10T11:31:44;43.17;;;26.92;;
11743;SDS011;5929;51.906;7.674;2022-12-10T11:34:24;42.63;;;26.17;;
11743;SDS011;5929;51.906;7.674;2022-12-10T11:37:03;40.28;;;25.02;;
11743;SDS011;5929;51.906;7.674;2022-12-10T11:39:45;42.53;;;24.88;;
11743;SDS011;5929;51.906;7.674;2022-12-10T11:42:34;42.13;;;26.60;;
11743;SDS011;5929;51.906;7.674;2022-12-10T11:45:09;40.28;;;24.88;;
11743;SDS011;5929;51.906;7.674;2022-12-10T11:47:47;43.13;;;26.58;;
11743;SDS011;5929;51.906;7.674;2022-12-10T11:50:25;41.22;;;26.40;;
11743;SDS011;5929;51.906;7.674;2022-12-10T11:52:57;43.80;;;26.45;;
11743;SDS011;5929;51.906;7.674;2022-12-10T11:55:35;44.70;;;27.02;;
11743;SDS011;5929;51.906;7.674;2022-12-10T11:58:14;44.38;;;27.25;;
11743;SDS011;5929;51.906;7.674;2022-12-10T12:00:57;45.63;;;28.25;;
11743;SDS011;5929;51.906;7.674;2022-12-10T12:03:31;44.70;;;28.25;;
11743;SDS011;5929;51.906;7.674;2022-12-10T12:06:19;52.28;;;30.77;;
11743;SDS011;5929;51.906;7.674;2022-12-10T12:08:59;61.90;;;33.42;;
11743;SDS011;5929;51.906;7.674;2022-12-10T12:11:36;60.53;;;35.10;;
11743;SDS011;5929;51.906;7.674;2022-12-10T12:14:21;68.10;;;37.40;;
11743;SDS011;5929;51.906;7.674;2022-12-10T12:16:55;70.28;;;38.05;;
11743;SDS011;5929;51.906;7.674;2022-12-10T12:19:31;67.57;;;37.88;;
11743;SDS011;5929;51.906;7.674;2022-12-10T12:22:07;66.18;;;38.10;;
11743;SDS011;5929;51.906;7.674;2022-12-10T12:24:40;61.13;;;34.92;;
11743;SDS011;5929;51.906;7.674;2022-12-10T12:27:12;68.35;;;37.28;;
11743;SDS011;5929;51.906;7.674;2022-12-10T12:29:47;71.65;;;37.38;;
11743;SDS011;5929;51.906;7.674;2022-12-10T12:32:25;72.35;;;39.30;;
11743;SDS011;5929;51.906;7.674;2022-12-10T12:34:56;65.93;;;37.63;;
11743;SDS011;5929;51.906;7.674;2022-12-10T12:37:32;68.15;;;37.47;;
11743;SDS011;5929;51.906;7.674;2022-12-10T12:40:03;73.40;;;38.20;;
11743;SDS011;5929;51.906;7.674;2022-12-10T12:42:41;77.38;;;41.33;;
11743;SDS011;5929;51.906;7.674;2022-12-10T12:45:13;73.13;;;38.97;;
11743;SDS011;5929;51.906;7.674;2022-12-10T12:47:43;75.43;;;40.90;;
11743;SDS011;5929;51.906;7.674;2022-12-10T12:50:20;73.82;;;39.17;;
11743;SDS011;5929;51.906;7.674;2022-12-10T12:52:57;71.75;;;40.70;;
11743;SDS011;5929;51.906;7.674;2022-12-10T12:55:28;73.47;;;41.38;;
11743;SDS011;5929;51.906;7.674;2022-12-10T12:58:02;67.03;;;38.83;;
11743;SDS011;5929;51.906;7.674;2022-12-10T13:00:41;74.95;;;40.78;;
11743;SDS011;5929;51.906;7.674;2022-12-10T13:03:17;76.68;;;40.70;;
11743;SDS011;5929;51.906;7.674;2022-12-10T13:05:51;78.70;;;43.25;;
11743;SDS011;5929;51.906;7.674;2022-12-10T13:08:28;72.72;;;40.92;;
11743;SDS011;5929;51.906;7.674;2022-12-10T13:10:59;78.00;;;42.58;;
11743;SDS011;5929;51.906;7.674;2022-12-10T13:13:43;69.32;;;38.47;;
11743;SDS011;5929;51.906;7.674;2022-12-10T13:16:46;77.15;;;40.72;;
11743;SDS011;5929;51.906;7.674;2022-12-10T13:19:16;80.82;;;43.75;;
11743;SDS011;5929;51.906;7.674;2022-12-10T13:22:05;73.90;;;40.53;;
11743;SDS011;5929;51.906;7.674;2022-12-10T13:25:03;80.30;;;43.63;;
11743;SDS011;5929;51.906;7.674;2022-12-10T13:27:36;78.25;;;41.70;;
11743;SDS011;5929;51.906;7.674;2022-12-10T13:30:05;74.55;;;42.00;;
11743;SDS011;5929;51.906;7.674;2022-12-10T13:33:02;74.10;;;39.30;;
11743;SDS011;5929;51.906;7.674;2022-12-10T13:35:41;74.07;;;40.65;;
11743;SDS011;5929;51.906;7.674;2022-12-10T13:38:18;75.57;;;39.13;;
11743;SDS011;5929;51.906;7.674;2022-12-10T13:40:57;69.38;;;37.88;;
11743;SDS011;5929;51.906;7.674;2022-12-10T13:43:51;74.80;;;38.92;;
11743;SDS011;5929;51.906;7.674;2022-12-10T13:46:50;71.90;;;37.80;;
11743;SDS011;5929;51.906;7.674;2022-12-10T13:49:20;67.18;;;36.83;;
11743;SDS011;5929;51.906;7.674;2022-12-10T13:51:52;78.07;;;40.30;;
11743;SDS011;5929;51.906;7.674;2022-12-10T13:57:30;75.63;;;37.83;;
11743;SDS011;5929;51.906;7.674;2022-12-10T14:00:15;74.65;;;39.35;;
11743;SDS011;5929;51.906;7.674;2022-12-10T14:08:41;68.72;;;36.53;;
11743;SDS011;5929;51.906;7.674;2022-12-10T14:11:19;71.47;;;36.22;;
11743;SDS011;5929;51.906;7.674;2022-12-10T14:13:51;75.13;;;37.10;;
11743;SDS011;5929;51.906;7.674;2022-12-10T14:16:23;69.70;;;36.88;;
11743;SDS011;5929;51.906;7.674;2022-12-10T14:18:53;65.93;;;35.22;;
11743;SDS011;5929;51.906;7.674;2022-12-10T14:21:23;73.13;;;37.83;;
11743;SDS011;5929;51.906;7.674;2022-12-10T14:23:50;79.25;;;39.22;;
11743;SDS011;5929;51.906;7.674;2022-12-10T14:26:18;75.10;;;37.45;;
11743;SDS011;5929;51.906;7.674;2022-12-10T14:28:47;72.30;;;37.47;;
11743;SDS011;5929;51.906;7.674;2022-12-10T14:31:18;74.53;;;38.35;;
11743;SDS011;5929;51.906;7.674;2022-12-10T14:33:48;76.30;;;36.78;;
11743;SDS011;5929;51.906;7.674;2022-12-10T14:36:19;78.78;;;38.70;;
11743;SDS011;5929;51.906;7.674;2022-12-10T14:38:50;74.32;;;39.08;;
11743;SDS011;5929;51.906;7.674;2022-12-10T14:41:18;72.80;;;37.50;;
11743;SDS011;5929;51.906;7.674;2022-12-10T14:43:48;73.53;;;37.60;;
11743;SDS011;5929;51.906;7.674;2022-12-10T14:46:18;78.90;;;39.28;;
11743;SDS011;5929;51.906;7.674;2022-12-10T14:48:49;76.72;;;39.17;;
11743;SDS011;5929;51.906;7.674;2022-12-10T14:51:20;76.60;;;39.83;;
11743;SDS011;5929;51.906;7.674;2022-12-10T14:53:49;76.07;;;38.67;;
11743;SDS011;5929;51.906;7.674;2022-12-10T14:56:19;74.00;;;37.60;;
11743;SDS011;5929;51.906;7.674;2022-12-10T14:58:51;71.18;;;37.20;;
11743;SDS011;5929;51.906;7.674;2022-12-10T15:01:26;83.95;;;39.15;;
11743;SDS011;5929;51.906;7.674;2022-12-10T15:03:55;75.43;;;39.80;;
11743;SDS011;5929;51.906;7.674;2022-12-10T15:06:24;77.35;;;40.72;;